createdAt,value
2022-11-21T00:01:17.901Z,4.45
2022-11-21T00:03:45.707Z,4.43
2022-11-21T00:06:14.814Z,4.47
2022-11-21T00:08:45.119Z,4.47
2022-11-21T00:11:13.079Z,4.45
2022-11-21T00:13:41.210Z,4.44
2022-11-21T00:16:11.133Z,4.50
2022-11-21T00:18:39.199Z,4.47
2022-11-21T00:21:07.697Z,4.47
2022-11-21T00:23:37.166Z,4.56
2022-11-21T00:26:06.175Z,4.57
2022-11-21T00:28:33.962Z,4.56
2022-11-21T00:31:01.815Z,4.57
2022-11-21T00:33:29.534Z,4.48
2022-11-21T00:35:57.261Z,4.50
2022-11-21T00:38:25.292Z,4.50
2022-11-21T00:40:54.434Z,4.52
2022-11-21T00:43:22.110Z,4.58
2022-11-21T00:45:49.809Z,4.54
2022-11-21T00:48:20.338Z,4.52
2022-11-21T00:50:49.965Z,4.48
2022-11-21T00:53:17.749Z,4.50
2022-11-21T00:55:45.486Z,4.47
2022-11-21T00:58:14.572Z,4.47
2022-11-21T01:00:42.357Z,4.46
2022-11-21T01:03:10.222Z,4.48
2022-11-21T01:05:38.019Z,4.46
2022-11-21T01:08:06.004Z,4.46
2022-11-21T01:10:35.224Z,4.46
2022-11-21T01:13:03.014Z,4.49
2022-11-21T01:15:32.155Z,4.49
2022-11-21T01:17:59.907Z,4.51
2022-11-21T01:20:27.655Z,4.51
2022-11-21T01:22:55.333Z,4.50
2022-11-21T01:25:23.068Z,4.48
2022-11-21T01:27:50.797Z,4.51
2022-11-21T01:30:18.603Z,4.52
2022-11-21T01:32:50.747Z,4.53
2022-11-21T01:35:18.737Z,4.57
2022-11-21T01:37:48.238Z,4.61
2022-11-21T01:40:19.574Z,4.59
2022-11-21T01:42:54.379Z,4.60
2022-11-21T01:46:03.742Z,4.61
2022-11-21T01:48:40.161Z,4.59
2022-11-21T01:51:15.124Z,4.59
2022-11-21T01:53:47.760Z,4.60
2022-11-21T01:56:16.205Z,4.60
2022-11-21T01:58:46.091Z,4.57
2022-11-21T02:01:14.125Z,4.54
2022-11-21T02:03:45.450Z,4.54
2022-11-21T02:06:14.106Z,4.52
2022-11-21T02:08:44.270Z,4.50
2022-11-21T02:11:19.642Z,4.56
2022-11-21T02:13:47.430Z,4.49
2022-11-21T02:16:15.425Z,4.48
2022-11-21T02:18:44.678Z,4.47
2022-11-21T02:21:22.000Z,4.49
2022-11-21T02:24:00.091Z,4.47
2022-11-21T02:26:32.860Z,4.45
2022-11-21T02:29:02.129Z,4.44
2022-11-21T02:31:29.858Z,4.46
2022-11-21T02:33:57.590Z,4.46
2022-11-21T02:36:36.657Z,4.45
2022-11-21T02:39:06.382Z,4.48
2022-11-21T02:41:38.767Z,4.44
2022-11-21T02:44:15.017Z,4.44
2022-11-21T02:46:49.786Z,4.42
2022-11-21T02:49:23.158Z,4.37
2022-11-21T02:51:50.892Z,4.38
2022-11-21T02:54:18.689Z,4.34
2022-11-21T02:56:47.830Z,4.36
2022-11-21T02:59:15.639Z,4.32
2022-11-21T03:01:43.375Z,4.32
2022-11-21T03:04:11.120Z,4.36
2022-11-21T03:06:38.859Z,4.42
2022-11-21T03:09:06.702Z,4.43
2022-11-21T03:11:34.449Z,4.43
2022-11-21T03:14:05.486Z,4.47
2022-11-21T03:16:33.251Z,4.45
2022-11-21T03:19:00.990Z,4.48
2022-11-21T03:21:28.743Z,4.48
2022-11-21T03:23:56.505Z,4.50
2022-11-21T03:26:24.260Z,4.50
2022-11-21T03:28:51.999Z,4.54
2022-11-21T03:31:21.050Z,4.57
2022-11-21T03:33:48.777Z,4.58
2022-11-21T03:36:16.503Z,4.58
2022-11-21T03:38:44.232Z,4.58
2022-11-21T03:41:25.835Z,4.61
2022-11-21T03:43:53.709Z,4.63
2022-11-21T03:46:23.125Z,4.61
2022-11-21T03:48:50.882Z,4.58
2022-11-21T03:51:19.136Z,4.54
2022-11-21T03:53:46.848Z,4.52
2022-11-21T03:56:15.043Z,4.53
2022-11-21T03:58:42.810Z,4.51
2022-11-21T04:01:11.014Z,4.47
2022-11-21T04:03:40.826Z,4.48
2022-11-21T04:06:08.649Z,4.44
2022-11-21T04:08:36.657Z,4.42
2022-11-21T04:11:04.717Z,4.43
2022-11-21T04:13:32.698Z,4.43
2022-11-21T04:16:00.412Z,4.41
2022-11-21T04:18:28.356Z,4.42
2022-11-21T04:20:59.162Z,4.41
2022-11-21T04:23:27.522Z,4.44
2022-11-21T04:25:55.610Z,4.46
2022-11-21T04:28:24.050Z,4.49
2022-11-21T04:30:54.858Z,4.43
2022-11-21T04:33:22.942Z,4.45
2022-11-21T04:35:50.687Z,4.45
2022-11-21T04:38:19.742Z,4.41
2022-11-21T04:40:50.369Z,4.39
2022-11-21T04:43:18.119Z,4.39
2022-11-21T04:45:45.874Z,4.37
2022-11-21T04:48:13.607Z,4.36
2022-11-21T04:50:41.372Z,4.31
2022-11-21T04:53:09.151Z,4.30
2022-11-21T04:55:38.234Z,4.28
2022-11-21T04:58:09.291Z,4.26
2022-11-21T05:00:37.176Z,4.28
2022-11-21T05:03:05.792Z,4.25
2022-11-21T05:05:36.806Z,4.24
2022-11-21T05:08:04.677Z,4.22
2022-11-21T05:10:52.388Z,4.21
2022-11-21T05:13:23.046Z,4.15
2022-11-21T05:15:51.708Z,4.16
2022-11-21T05:18:20.709Z,4.12
2022-11-21T05:20:48.457Z,4.17
2022-11-21T05:23:16.138Z,4.14
2022-11-21T05:25:43.874Z,4.11
2022-11-21T05:28:11.566Z,4.02
2022-11-21T05:30:40.666Z,4.00
2022-11-21T05:33:08.378Z,3.98
2022-11-21T05:35:42.858Z,3.95
2022-11-21T05:38:11.141Z,3.94
2022-11-21T05:40:40.437Z,3.96
2022-11-21T05:43:25.509Z,3.94
2022-11-21T05:45:54.590Z,3.92
2022-11-21T05:48:22.329Z,3.89
2022-11-21T05:50:50.823Z,3.86
2022-11-21T05:53:18.704Z,3.83
2022-11-21T05:55:46.970Z,3.82
2022-11-21T05:58:15.418Z,3.87
2022-11-21T06:00:43.227Z,3.88
2022-11-21T06:03:27.296Z,3.90
2022-11-21T06:06:00.480Z,3.84
2022-11-21T06:08:28.696Z,3.84
2022-11-21T06:10:56.690Z,3.87
2022-11-21T06:13:24.450Z,3.83
2022-11-21T06:15:54.086Z,3.88
2022-11-21T06:18:23.507Z,3.84
2022-11-21T06:20:51.563Z,3.88
2022-11-21T06:23:20.911Z,3.81
2022-11-21T06:25:48.676Z,3.79
2022-11-21T06:28:16.385Z,3.77
2022-11-21T06:30:44.930Z,3.77
2022-11-21T06:33:12.608Z,3.72
2022-11-21T06:35:41.727Z,3.74
2022-11-21T06:38:09.458Z,3.70
2022-11-21T06:40:37.183Z,3.68
2022-11-21T06:43:04.923Z,3.67
2022-11-21T06:45:32.669Z,3.66
2022-11-21T06:48:03.392Z,3.65
2022-11-21T06:50:32.110Z,3.64
2022-11-21T06:53:01.740Z,3.64
2022-11-21T06:55:29.827Z,3.60
2022-11-21T06:57:59.753Z,3.60
2022-11-21T07:00:28.374Z,3.57
2022-11-21T07:03:03.137Z,3.58
2022-11-21T07:05:32.291Z,3.54
2022-11-21T07:08:02.565Z,3.59
2022-11-21T07:10:31.468Z,3.55
2022-11-21T07:13:17.211Z,3.59
2022-11-21T07:15:45.520Z,3.63
2022-11-21T07:18:15.514Z,3.67
2022-11-21T07:20:43.198Z,3.72
2022-11-21T07:23:12.283Z,3.71
2022-11-21T07:25:40.654Z,3.69
2022-11-21T07:28:09.087Z,3.71
2022-11-21T07:30:37.739Z,3.78
2022-11-21T07:33:07.440Z,3.80
2022-11-21T07:35:35.213Z,3.81
2022-11-21T07:38:03.703Z,3.83
2022-11-21T07:40:34.685Z,3.86
2022-11-21T07:43:06.723Z,3.90
2022-11-21T07:45:38.729Z,3.97
2022-11-21T07:48:08.461Z,4.01
2022-11-21T07:50:36.435Z,4.09
2022-11-21T07:53:06.360Z,4.18
2022-11-21T07:55:40.378Z,4.29
2022-11-21T07:58:10.134Z,4.37
2022-11-21T08:00:40.239Z,4.41
2022-11-21T08:03:08.183Z,4.51
2022-11-21T08:05:38.126Z,4.55
2022-11-21T08:08:06.639Z,4.70
2022-11-21T08:10:38.753Z,4.83
2022-11-21T08:13:06.494Z,4.90
2022-11-21T08:15:34.351Z,5.01
2022-11-21T08:18:10.982Z,5.04
2022-11-21T08:20:40.839Z,5.07
2022-11-21T08:23:10.090Z,5.02
2022-11-21T08:25:40.292Z,5.06
2022-11-21T08:28:09.295Z,5.14
2022-11-21T08:30:37.743Z,5.23
2022-11-21T08:33:06.421Z,5.26
2022-11-21T08:35:37.011Z,5.19
2022-11-21T08:38:04.719Z,5.18
2022-11-21T08:40:33.565Z,5.15
2022-11-21T08:43:04.596Z,5.05
2022-11-21T08:45:33.478Z,4.94
2022-11-21T08:48:02.162Z,5.01
2022-11-21T08:50:29.938Z,5.03
2022-11-21T08:53:01.415Z,5.05
2022-11-21T08:55:29.391Z,5.09
2022-11-21T08:57:57.142Z,5.17
2022-11-21T09:00:26.737Z,5.25
2022-11-21T09:02:54.797Z,5.35
2022-11-21T09:05:22.575Z,5.39
2022-11-21T09:07:57.307Z,5.51
2022-11-21T09:10:25.385Z,5.56
2022-11-21T09:12:53.163Z,5.53
2022-11-21T09:15:38.276Z,5.59
2022-11-21T09:18:08.080Z,5.68
2022-11-21T09:20:41.664Z,5.68
2022-11-21T09:23:11.583Z,5.78
2022-11-21T09:25:39.744Z,5.82
2022-11-21T09:28:09.249Z,5.86
2022-11-21T09:30:38.113Z,5.91
2022-11-21T09:33:09.057Z,5.89
2022-11-21T09:35:36.838Z,5.96
2022-11-21T09:38:05.470Z,6.05
2022-11-21T09:40:35.396Z,6.20
2022-11-21T09:43:35.862Z,6.26
2022-11-21T09:46:11.009Z,6.17
2022-11-21T09:48:49.816Z,6.17
2022-11-21T09:51:21.232Z,6.23
2022-11-21T09:53:58.086Z,6.31
2022-11-21T09:56:28.541Z,6.31
2022-11-21T09:59:11.411Z,6.30
2022-11-21T10:01:39.635Z,6.26
2022-11-21T10:04:08.834Z,6.34
2022-11-21T10:06:47.200Z,6.31
2022-11-21T10:09:24.426Z,6.39
2022-11-21T10:12:19.105Z,6.40
2022-11-21T10:14:55.975Z,6.43
2022-11-21T10:17:31.466Z,6.40
2022-11-21T10:20:15.560Z,6.43
2022-11-21T10:22:56.459Z,6.47
2022-11-21T10:25:27.469Z,6.45
2022-11-21T10:27:58.590Z,6.43
2022-11-21T10:30:26.398Z,6.32
2022-11-21T10:32:57.101Z,6.25
2022-11-21T10:35:30.279Z,6.24
2022-11-21T10:38:01.982Z,6.25
2022-11-21T10:40:36.802Z,6.21
2022-11-21T10:43:23.670Z,6.16
2022-11-21T10:45:51.907Z,6.18
2022-11-21T10:48:19.915Z,6.22
2022-11-21T10:51:16.058Z,6.31
2022-11-21T10:54:06.323Z,6.42
2022-11-21T10:56:37.115Z,6.59
2022-11-21T10:59:25.684Z,6.86
2022-11-21T11:01:59.130Z,7.16
2022-11-21T11:04:30.984Z,7.31
2022-11-21T11:07:21.433Z,7.43
2022-11-21T11:09:49.286Z,7.55
2022-11-21T11:12:56.126Z,7.71
2022-11-21T11:15:26.048Z,7.75
2022-11-21T11:17:57.134Z,7.83
2022-11-21T11:20:35.154Z,7.83
2022-11-21T11:23:27.715Z,7.70
2022-11-21T11:25:57.750Z,7.58
2022-11-21T11:28:26.505Z,7.65
2022-11-21T11:30:56.668Z,7.54
2022-11-21T11:33:33.027Z,7.51
2022-11-21T11:36:12.597Z,7.52
2022-11-21T11:38:44.649Z,7.67
2022-11-21T11:41:22.806Z,7.76
2022-11-21T11:44:20.991Z,7.74
2022-11-21T11:47:17.878Z,7.82
2022-11-21T11:50:07.931Z,7.83
2022-11-21T11:52:43.213Z,7.89
2022-11-21T11:55:21.401Z,7.88
2022-11-21T11:57:53.354Z,7.76
2022-11-21T12:00:28.878Z,7.66
2022-11-21T12:03:01.948Z,7.54
2022-11-21T12:05:32.157Z,7.46
2022-11-21T12:08:40.160Z,7.38
2022-11-21T12:11:22.345Z,7.24
2022-11-21T12:13:56.705Z,7.16
2022-11-21T12:16:26.591Z,7.14
2022-11-21T12:18:59.938Z,7.12
2022-11-21T12:21:28.961Z,7.05
2022-11-21T12:23:58.806Z,7.06
2022-11-21T12:26:37.306Z,7.04
2022-11-21T12:29:17.093Z,7.03
2022-11-21T12:32:01.694Z,7.05
2022-11-21T12:34:44.694Z,7.09
2022-11-21T12:37:26.110Z,7.13
2022-11-21T12:40:01.401Z,7.13
2022-11-21T12:42:50.817Z,7.10
2022-11-21T12:45:29.198Z,7.04
2022-11-21T12:48:28.894Z,6.99
2022-11-21T12:51:31.625Z,6.94
2022-11-21T12:54:30.392Z,6.95
2022-11-21T12:57:06.242Z,6.98
2022-11-21T12:59:44.759Z,7.04
2022-11-21T13:02:26.055Z,7.10
2022-11-21T13:04:57.230Z,7.16
2022-11-21T13:07:29.696Z,7.29
2022-11-21T13:09:59.768Z,7.38
2022-11-21T13:12:35.942Z,7.36
2022-11-21T13:15:16.987Z,7.40
2022-11-21T13:17:50.453Z,7.36
2022-11-21T13:20:28.032Z,7.39
2022-11-21T13:22:57.957Z,7.40
2022-11-21T13:25:47.315Z,7.35
2022-11-21T13:28:33.969Z,7.33
2022-11-21T13:31:08.279Z,7.27
2022-11-21T13:33:55.380Z,7.23
2022-11-21T13:36:41.929Z,7.18
2022-11-21T13:39:32.134Z,7.15
2022-11-21T13:42:20.779Z,7.11
2022-11-21T13:44:49.232Z,7.08
2022-11-21T13:47:47.775Z,7.09
2022-11-21T13:50:31.194Z,7.13
2022-11-21T13:53:13.121Z,7.13
2022-11-21T13:55:56.300Z,7.16
2022-11-21T13:58:37.548Z,7.17
2022-11-21T14:01:18.609Z,7.19
2022-11-21T14:04:32.362Z,7.22
2022-11-21T14:09:57.499Z,7.22
2022-11-21T14:12:34.368Z,7.22
2022-11-21T14:15:26.498Z,7.19
2022-11-21T14:17:57.523Z,7.13
2022-11-21T14:20:28.878Z,7.12
2022-11-21T14:23:18.701Z,7.08
2022-11-21T14:25:51.394Z,7.08
2022-11-21T14:28:25.211Z,7.06
2022-11-21T14:30:58.191Z,7.02
2022-11-21T14:33:32.937Z,6.97
2022-11-21T14:36:04.704Z,6.93
2022-11-21T14:38:35.831Z,6.88
2022-11-21T14:41:32.074Z,6.82
2022-11-21T14:44:24.844Z,6.77
2022-11-21T14:47:03.361Z,6.70
2022-11-21T14:49:31.330Z,6.63
2022-11-21T14:52:09.543Z,6.58
2022-11-21T14:55:06.331Z,6.50
2022-11-21T14:57:38.783Z,6.41
2022-11-21T15:00:36.044Z,6.32
2022-11-21T15:03:03.391Z,6.25
2022-11-21T15:06:02.163Z,6.18
2022-11-21T15:11:13.451Z,6.01
2022-11-21T15:14:17.700Z,5.91
2022-11-21T15:16:36.379Z,5.79
2022-11-21T15:19:12.134Z,5.72
2022-11-21T15:21:48.264Z,5.63
2022-11-21T15:24:29.407Z,5.53
2022-11-21T15:26:57.310Z,5.44
2022-11-21T15:29:26.998Z,5.29
2022-11-21T15:32:10.517Z,5.17
2022-11-21T15:34:42.240Z,5.16
2022-11-21T15:37:17.246Z,5.12
2022-11-21T15:39:46.195Z,4.96
2022-11-21T15:42:46.880Z,4.83
2022-11-21T15:45:28.804Z,4.76
2022-11-21T15:47:56.752Z,4.60
2022-11-21T15:50:26.157Z,4.50
2022-11-21T15:52:57.097Z,4.43
2022-11-21T15:55:29.374Z,4.35
2022-11-21T15:57:57.186Z,4.35
2022-11-21T16:00:26.368Z,4.28
2022-11-21T16:02:54.130Z,4.19
2022-11-21T16:05:21.855Z,4.13
2022-11-21T16:07:49.571Z,4.03
2022-11-21T16:10:24.253Z,4.01
2022-11-21T16:12:53.769Z,3.91
2022-11-21T16:15:21.835Z,3.87
2022-11-21T16:17:52.246Z,3.83
2022-11-21T16:20:20.013Z,3.81
2022-11-21T16:22:48.227Z,3.77
2022-11-21T16:25:17.668Z,3.70
2022-11-21T16:27:45.413Z,3.63
2022-11-21T16:30:14.148Z,3.57
2022-11-21T16:32:41.861Z,3.57
2022-11-21T16:35:13.109Z,3.46
2022-11-21T16:37:40.899Z,3.37
2022-11-21T16:40:10.562Z,3.31
2022-11-21T16:42:38.282Z,3.24
2022-11-21T16:45:07.032Z,3.21
2022-11-21T16:47:38.094Z,3.11
2022-11-21T16:50:06.620Z,3.14
2022-11-21T16:52:36.615Z,3.13
2022-11-21T16:55:05.409Z,3.12
2022-11-21T16:57:35.242Z,3.17
2022-11-21T17:00:03.541Z,3.18
2022-11-21T17:02:31.371Z,3.22
2022-11-21T17:04:59.104Z,3.14
2022-11-21T17:07:26.859Z,3.10
2022-11-21T17:09:56.279Z,3.07
2022-11-21T17:12:24.370Z,3.08
2022-11-21T17:14:52.565Z,3.10
2022-11-21T17:17:20.367Z,3.07
2022-11-21T17:19:48.814Z,3.07
2022-11-21T17:22:21.533Z,3.10
2022-11-21T17:24:53.149Z,3.03
2022-11-21T17:27:22.925Z,3.03
2022-11-21T17:29:53.788Z,3.03
2022-11-21T17:32:23.876Z,3.03
2022-11-21T17:34:52.498Z,3.05
2022-11-21T17:37:20.598Z,3.07
2022-11-21T17:39:48.331Z,3.07
2022-11-21T17:42:16.668Z,3.06
2022-11-21T17:44:47.031Z,3.09
2022-11-21T17:47:14.832Z,3.12
2022-11-21T17:49:42.646Z,3.12
2022-11-21T17:52:10.759Z,3.14
2022-11-21T17:54:38.623Z,3.13
2022-11-21T17:57:06.693Z,3.11
2022-11-21T17:59:34.752Z,3.12
2022-11-21T18:02:03.987Z,3.11
2022-11-21T18:04:32.067Z,3.13
2022-11-21T18:07:00.379Z,3.16
2022-11-21T18:09:28.469Z,3.14
2022-11-21T18:11:57.730Z,3.15
2022-11-21T18:14:25.661Z,3.15
2022-11-21T18:16:55.339Z,3.18
2022-11-21T18:19:24.471Z,3.18
2022-11-21T18:21:52.796Z,3.18
2022-11-21T18:24:20.552Z,3.18
2022-11-21T18:26:48.348Z,3.19
2022-11-21T18:32:03.829Z,3.15
2022-11-21T18:34:32.958Z,3.15
2022-11-21T18:37:00.722Z,3.17
2022-11-21T18:39:28.816Z,3.22
2022-11-21T18:41:56.704Z,3.22
2022-11-21T18:44:24.472Z,3.21
2022-11-21T18:46:52.230Z,3.25
2022-11-21T18:49:20.017Z,3.28
2022-11-21T18:51:49.123Z,3.31
2022-11-21T18:54:16.875Z,3.30
2022-11-21T18:56:44.681Z,3.29
2022-11-21T18:59:12.472Z,3.33
2022-11-21T19:01:40.372Z,3.31
2022-11-21T19:04:09.277Z,3.35
2022-11-21T19:06:37.348Z,3.37
2022-11-21T19:09:08.098Z,3.46
2022-11-21T19:11:35.980Z,3.42
2022-11-21T19:14:03.929Z,3.44
2022-11-21T19:16:34.275Z,3.54
2022-11-21T19:21:50.499Z,3.66
2022-11-21T19:24:20.296Z,3.73
2022-11-21T19:26:50.252Z,3.70
2022-11-21T19:29:19.021Z,3.71
2022-11-21T19:31:46.760Z,3.67
2022-11-21T19:34:15.025Z,3.65
2022-11-21T19:36:43.159Z,3.61
2022-11-21T19:39:11.128Z,3.61
2022-11-21T19:41:41.286Z,3.58
2022-11-21T19:44:09.066Z,3.57
2022-11-21T19:46:38.589Z,3.59
2022-11-21T19:49:07.747Z,3.60
2022-11-21T19:51:38.078Z,3.70
2022-11-21T19:54:07.003Z,3.78
2022-11-21T19:56:35.590Z,3.81
2022-11-21T19:59:05.488Z,3.78
2022-11-21T20:01:34.867Z,3.76
2022-11-21T20:04:04.339Z,3.81
2022-11-21T20:06:33.315Z,3.79
2022-11-21T20:09:02.537Z,3.81
2022-11-21T20:11:32.048Z,3.80
2022-11-21T20:14:00.002Z,3.79
2022-11-21T20:16:30.701Z,3.74
2022-11-21T20:19:01.242Z,3.72
2022-11-21T20:21:30.165Z,3.71
2022-11-21T20:23:58.000Z,3.76
2022-11-21T20:26:27.299Z,3.73
2022-11-21T20:28:55.364Z,3.74
2022-11-21T20:31:24.719Z,3.72
2022-11-21T20:33:55.740Z,3.71
2022-11-21T20:36:25.056Z,3.78
2022-11-21T20:38:54.521Z,3.78
2022-11-21T20:41:24.060Z,3.83
2022-11-21T20:46:42.594Z,3.83
2022-11-21T20:49:12.470Z,3.81
2022-11-21T20:54:28.665Z,3.85
2022-11-21T20:56:56.635Z,3.86
2022-11-21T20:59:24.500Z,3.83
2022-11-21T21:01:52.555Z,3.83
2022-11-21T21:04:31.051Z,3.80
2022-11-21T21:06:58.775Z,3.80
2022-11-21T21:09:26.717Z,3.82
2022-11-21T21:11:54.673Z,3.77
2022-11-21T21:14:22.550Z,3.82
2022-11-21T21:16:51.162Z,3.83
2022-11-21T21:19:19.598Z,3.82
2022-11-21T21:21:49.063Z,3.84
2022-11-21T21:24:17.162Z,3.89
2022-11-21T21:26:47.797Z,3.84
2022-11-21T21:29:17.937Z,3.80
2022-11-21T21:31:51.219Z,3.85
2022-11-21T21:34:20.305Z,3.83
2022-11-21T21:36:49.477Z,3.84
2022-11-21T21:39:17.278Z,3.79
2022-11-21T21:41:46.767Z,3.75
2022-11-21T21:44:15.606Z,3.76
2022-11-21T21:46:46.158Z,3.70
2022-11-21T21:49:14.281Z,3.71
2022-11-21T21:51:42.065Z,3.73
2022-11-21T21:54:18.430Z,3.67
2022-11-21T21:56:46.924Z,3.79
2022-11-21T21:59:15.457Z,3.76
2022-11-21T22:01:43.714Z,3.72
2022-11-21T22:04:13.330Z,3.70
2022-11-21T22:06:41.373Z,3.79
2022-11-21T22:09:09.167Z,3.71
2022-11-21T22:11:39.414Z,3.72
2022-11-21T22:14:09.356Z,3.75
2022-11-21T22:16:37.177Z,3.70
2022-11-21T22:19:05.010Z,3.68
2022-11-21T22:21:34.520Z,3.65
2022-11-21T22:26:52.650Z,3.64
2022-11-21T22:29:20.427Z,3.68
2022-11-21T22:31:48.167Z,3.66
2022-11-21T22:34:15.930Z,3.62
2022-11-21T22:36:44.707Z,3.62
2022-11-21T22:39:12.469Z,3.62
2022-11-21T22:41:40.247Z,3.62
2022-11-21T22:44:09.369Z,3.58
2022-11-21T22:46:37.222Z,3.58
2022-11-21T22:49:04.988Z,3.58
2022-11-21T22:51:33.076Z,3.59
2022-11-21T22:54:00.822Z,3.59
2022-11-21T22:56:29.010Z,3.57
2022-11-21T22:58:57.034Z,3.58
2022-11-21T23:01:27.399Z,3.56
2022-11-21T23:03:56.476Z,3.54
2022-11-21T23:06:26.141Z,3.55
2022-11-21T23:08:55.305Z,3.53
2022-11-21T23:11:25.919Z,3.55
2022-11-21T23:13:54.557Z,3.55
2022-11-21T23:16:22.768Z,3.54
2022-11-21T23:18:52.823Z,3.52
2022-11-21T23:21:20.874Z,3.52
2022-11-21T23:23:48.934Z,3.51
2022-11-21T23:26:16.738Z,3.52
2022-11-21T23:28:44.594Z,3.51
2022-11-21T23:31:12.576Z,3.52
2022-11-21T23:33:40.334Z,3.52
2022-11-21T23:36:09.726Z,3.53
2022-11-21T23:38:37.548Z,3.52
2022-11-21T23:41:05.447Z,3.51
2022-11-21T23:43:33.201Z,3.53
2022-11-21T23:46:01.067Z,3.54
2022-11-21T23:48:29.373Z,3.53
2022-11-21T23:50:57.090Z,3.53
2022-11-21T23:53:26.256Z,3.55
2022-11-21T23:55:54.020Z,3.57
2022-11-21T23:58:21.833Z,3.58
